Pegasus J — V2CF5 — position and weather

sailwx.info

Track history (hours):
 
Tides and Currents Weather Stations Pressure Air Temp Water Temp Dewpoint Dewpoint Depression Visibility Wind Speed Wind Dir Waves Ship Positions

Pegasus J

Last reported at 2018-Aug-02 19:45 UTC. Time now 2018-Aug-21 01:55 UTC.
Position N 25°27' W 079°40'.
Warning: this ship's position is 18 days out of date.

Length 140 m; draft 5.9 m.

Type: Ship. MMSI: 304122000.

Date/timePositionNaut miles runAvg speedWind from/ knotsBaromVisibWave heightAir tempDewpointWater temp
2018-Aug-02 19:45N 25°27' W 079°40'313.6
2018-Aug-02 19:30N 25°30' W 079°40'713.0
2018-Aug-02 19:00N 25°36' W 079°41'611.6
2018-Aug-02 18:30N 25°42' W 079°41'611.4
2018-Aug-02 18:00N 25°48' W 079°41'611.7
2018-Aug-02 17:30N 25°53' W 079°45'612.6
2018-Aug-02 17:00N 25°57' W 079°50'612.2
2018-Aug-02 16:30N 26°01' W 079°55'612.6
2018-Aug-02 16:00N 26°04' W 080°01'510.3
2018-Aug-02 15:29N 26°06' W 080°07'2 2.6
2018-Aug-02 14:52N 26°04' W 080°07'0 0.0
2018-Aug-02 14:25N 26°04' W 080°07'0 0.0
2018-Aug-02 13:58N 26°04' W 080°07'0 0.0
2018-Aug-02 13:25N 26°04' W 080°07'0 0.0
2018-Aug-02 12:58N 26°04' W 080°07'0 0.0
2018-Aug-02 12:28N 26°04' W 080°07'0 0.0
2018-Aug-02 11:55N 26°04' W 080°07'0 0.0
2018-Aug-02 11:25N 26°04' W 080°07'0 0.0
2018-Aug-02 10:55N 26°04' W 080°07'0 0.0
2018-Aug-02 10:25N 26°04' W 080°07'0 0.0
2018-Aug-02 09:55N 26°04' W 080°07'0 0.0
2018-Aug-02 09:25N 26°04' W 080°07'0 0.0
2018-Aug-02 08:58N 26°04' W 080°07'0 0.0
2018-Aug-02 08:28N 26°04' W 080°07'0 0.0
2018-Aug-02 07:58N 26°04' W 080°07'0 0.0
2018-Aug-02 07:28N 26°04' W 080°07'0 0.0
2018-Aug-02 06:58N 26°04' W 080°07'0 0.0
2018-Aug-02 06:25N 26°04' W 080°07'0 0.0
2018-Aug-02 05:58N 26°04' W 080°07'0 0.0
2018-Aug-02 05:28N 26°04' W 080°07'0 0.0
2018-Aug-02 04:58N 26°04' W 080°07'0 0.0
2018-Aug-02 04:28N 26°04' W 080°07'0 0.0
2018-Aug-02 03:58N 26°04' W 080°07'0 0.0
2018-Aug-02 03:30N 26°04' W 080°07'2 3.2
2018-Aug-02 03:00N 26°06' W 080°07'5 9.1
2018-Aug-02 02:30N 26°08' W 080°02'3 6.7
2018-Aug-02 01:59N 26°05' W 080°01'5 9.4
2018-Aug-02 01:31N 26°02' W 079°57'5 9.5
2018-Aug-02 01:00N 25°59' W 079°53'510.0
2018-Aug-02 00:30N 25°55' W 079°49'510.0
2018-Aug-02 00:00N 25°52' W 079°44'510.5
2018-Aug-01 23:30N 25°48' W 079°42'612.6
2018-Aug-01 23:00N 25°41' W 079°41'612.5
2018-Aug-01 22:30N 25°35' W 079°40'815.3
2018-Aug-01 22:00N 25°28' W 079°40'  
2018-Jul-27 04:24N 25°28' W 079°40'513.3
2018-Jul-27 04:01N 25°34' W 079°41'713.0
2018-Jul-27 03:30N 25°40' W 079°41'611.8
2018-Jul-27 03:00N 25°46' W 079°42'611.4
2018-Jul-27 02:30N 25°52' W 079°44'713.2
2018-Jul-27 02:00N 25°56' W 079°49'713.3
2018-Jul-27 01:30N 26°00' W 079°55'713.4
2018-Jul-27 01:00N 26°03' W 080°02'511.0
2018-Jul-27 00:30N 26°06' W 080°07'1 2.6
2018-Jul-26 23:59N 26°04' W 080°07'0 0.0
2018-Jul-26 23:29N 26°04' W 080°07'0 0.0
2018-Jul-26 22:59N 26°04' W 080°07'0 0.0
2018-Jul-26 22:29N 26°04' W 080°07'0 0.0
2018-Jul-26 21:59N 26°04' W 080°07'0 0.0
2018-Jul-26 21:29N 26°04' W 080°07'0 0.0
2018-Jul-26 20:59N 26°04' W 080°07'0 0.0
2018-Jul-26 20:29N 26°04' W 080°07'0 0.0
2018-Jul-26 20:00N 26°04' W 080°07'0 0.3
2018-Jul-26 19:30N 26°04' W 080°07'0 0.0
2018-Jul-26 19:00N 26°04' W 080°07'0 0.0
2018-Jul-26 18:30N 26°04' W 080°07'0 0.0
2018-Jul-26 18:00N 26°04' W 080°07'0 0.0
2018-Jul-26 17:27N 26°04' W 080°07'0 0.0
2018-Jul-26 16:54N 26°04' W 080°07'0 0.0
2018-Jul-26 16:30N 26°04' W 080°07'0 0.0
2018-Jul-26 15:57N 26°04' W 080°07'0 0.0
2018-Jul-26 15:24N 26°04' W 080°07'0 0.0
2018-Jul-26 14:57N 26°04' W 080°07'0 0.0
2018-Jul-26 14:30N 26°04' W 080°07'0 0.0
2018-Jul-26 13:54N 26°04' W 080°07'0 0.0
2018-Jul-26 13:27N 26°04' W 080°07'0 0.0
2018-Jul-26 13:00N 26°04' W 080°07'0 0.0
2018-Jul-26 12:27N 26°04' W 080°07'0 0.0
2018-Jul-26 11:57N 26°04' W 080°07'0 0.0
2018-Jul-26 11:30N 26°04' W 080°07'0 0.0
2018-Jul-26 11:00N 26°04' W 080°07'0 0.1
2018-Jul-26 10:30N 26°04' W 080°07'0 0.0
2018-Jul-26 10:00N 26°04' W 080°07'0 0.0
2018-Jul-26 09:30N 26°04' W 080°07'0 0.0
2018-Jul-26 09:00N 26°04' W 080°07'0 0.0
2018-Jul-26 08:30N 26°04' W 080°07'0 0.0
2018-Jul-26 08:00N 26°04' W 080°07'0 0.0
2018-Jul-26 07:30N 26°04' W 080°07'0 0.0
2018-Jul-26 07:00N 26°04' W 080°07'0 0.0
2018-Jul-26 06:30N 26°04' W 080°07'0 0.1
2018-Jul-26 06:00N 26°04' W 080°07'0 0.9
2018-Jul-26 05:30N 26°04' W 080°07'0 0.0
2018-Jul-26 05:00N 26°04' W 080°07'2 3.7
2018-Jul-26 04:30N 26°06' W 080°06'4 8.8
2018-Jul-26 04:00N 26°07' W 080°01'3 6.5
2018-Jul-26 03:30N 26°09' W 079°59'2 4.3
2018-Jul-26 03:00N 26°10' W 079°57'4 8.4
2018-Jul-26 02:30N 26°06' W 079°56'4 7.9
2018-Jul-26 02:00N 26°02' W 079°55'3 6.6
2018-Jul-26 01:30N 25°60' W 079°52'4 7.1
2018-Jul-26 01:00N 25°58' W 079°49'4 8.9
2018-Jul-26 00:30N 25°55' W 079°45'510.2
2018-Jul-26 00:00N 25°51' W 079°42'613.0
2018-Jul-25 23:30N 25°45' W 079°41'713.2
2018-Jul-25 23:00N 25°38' W 079°41'916.5
2018-Jul-25 22:26N 25°29' W 079°40'  
Track history (hours):
 
Tides and Currents Weather Stations Pressure Air Temp Water Temp Dewpoint Dewpoint Depression Visibility Wind Speed Wind Dir Waves Ship Positions

Pegasus J

Last reported at 2018-Aug-02 19:45 UTC. Time now 2018-Aug-21 01:55 UTC.
Position N 25°27' W 079°40'.
Warning: this ship's position is 18 days out of date.

Length 140 m; draft 5.9 m.

Type: Ship. MMSI: 304122000.

Date/timePositionNaut miles runAvg speedWind from/ knotsBaromVisibWave heightAir tempDewpointWater temp
2018-Aug-02 19:45N 25°27' W 079°40'313.6
2018-Aug-02 19:30N 25°30' W 079°40'713.0
2018-Aug-02 19:00N 25°36' W 079°41'611.6
2018-Aug-02 18:30N 25°42' W 079°41'611.4
2018-Aug-02 18:00N 25°48' W 079°41'611.7
2018-Aug-02 17:30N 25°53' W 079°45'612.6
2018-Aug-02 17:00N 25°57' W 079°50'612.2
2018-Aug-02 16:30N 26°01' W 079°55'612.6
2018-Aug-02 16:00N 26°04' W 080°01'510.3
2018-Aug-02 15:29N 26°06' W 080°07'2 2.6
2018-Aug-02 14:52N 26°04' W 080°07'0 0.0
2018-Aug-02 14:25N 26°04' W 080°07'0 0.0
2018-Aug-02 13:58N 26°04' W 080°07'0 0.0
2018-Aug-02 13:25N 26°04' W 080°07'0 0.0
2018-Aug-02 12:58N 26°04' W 080°07'0 0.0
2018-Aug-02 12:28N 26°04' W 080°07'0 0.0
2018-Aug-02 11:55N 26°04' W 080°07'0 0.0
2018-Aug-02 11:25N 26°04' W 080°07'0 0.0
2018-Aug-02 10:55N 26°04' W 080°07'0 0.0
2018-Aug-02 10:25N 26°04' W 080°07'0 0.0
2018-Aug-02 09:55N 26°04' W 080°07'0 0.0
2018-Aug-02 09:25N 26°04' W 080°07'0 0.0
2018-Aug-02 08:58N 26°04' W 080°07'0 0.0
2018-Aug-02 08:28N 26°04' W 080°07'0 0.0
2018-Aug-02 07:58N 26°04' W 080°07'0 0.0
2018-Aug-02 07:28N 26°04' W 080°07'0 0.0
2018-Aug-02 06:58N 26°04' W 080°07'0 0.0
2018-Aug-02 06:25N 26°04' W 080°07'0 0.0
2018-Aug-02 05:58N 26°04' W 080°07'0 0.0
2018-Aug-02 05:28N 26°04' W 080°07'0 0.0
2018-Aug-02 04:58N 26°04' W 080°07'0 0.0
2018-Aug-02 04:28N 26°04' W 080°07'0 0.0
2018-Aug-02 03:58N 26°04' W 080°07'0 0.0
2018-Aug-02 03:30N 26°04' W 080°07'2 3.2
2018-Aug-02 03:00N 26°06' W 080°07'5 9.1
2018-Aug-02 02:30N 26°08' W 080°02'3 6.7
2018-Aug-02 01:59N 26°05' W 080°01'5 9.4
2018-Aug-02 01:31N 26°02' W 079°57'5 9.5
2018-Aug-02 01:00N 25°59' W 079°53'510.0
2018-Aug-02 00:30N 25°55' W 079°49'510.0
2018-Aug-02 00:00N 25°52' W 079°44'510.5
2018-Aug-01 23:30N 25°48' W 079°42'612.6
2018-Aug-01 23:00N 25°41' W 079°41'612.5
2018-Aug-01 22:30N 25°35' W 079°40'815.3
2018-Aug-01 22:00N 25°28' W 079°40'  
2018-Jul-27 04:24N 25°28' W 079°40'513.3
2018-Jul-27 04:01N 25°34' W 079°41'713.0
2018-Jul-27 03:30N 25°40' W 079°41'611.8
2018-Jul-27 03:00N 25°46' W 079°42'611.4
2018-Jul-27 02:30N 25°52' W 079°44'713.2
2018-Jul-27 02:00N 25°56' W 079°49'713.3
2018-Jul-27 01:30N 26°00' W 079°55'713.4
2018-Jul-27 01:00N 26°03' W 080°02'511.0
2018-Jul-27 00:30N 26°06' W 080°07'1 2.6
2018-Jul-26 23:59N 26°04' W 080°07'0 0.0
2018-Jul-26 23:29N 26°04' W 080°07'0 0.0
2018-Jul-26 22:59N 26°04' W 080°07'0 0.0
2018-Jul-26 22:29N 26°04' W 080°07'0 0.0
2018-Jul-26 21:59N 26°04' W 080°07'0 0.0
2018-Jul-26 21:29N 26°04' W 080°07'0 0.0
2018-Jul-26 20:59N 26°04' W 080°07'0 0.0
2018-Jul-26 20:29N 26°04' W 080°07'0 0.0
2018-Jul-26 20:00N 26°04' W 080°07'0 0.3
2018-Jul-26 19:30N 26°04' W 080°07'0 0.0
2018-Jul-26 19:00N 26°04' W 080°07'0 0.0
2018-Jul-26 18:30N 26°04' W 080°07'0 0.0
2018-Jul-26 18:00N 26°04' W 080°07'0 0.0
2018-Jul-26 17:27N 26°04' W 080°07'0 0.0
2018-Jul-26 16:54N 26°04' W 080°07'0 0.0
2018-Jul-26 16:30N 26°04' W 080°07'0 0.0
2018-Jul-26 15:57N 26°04' W 080°07'0 0.0
2018-Jul-26 15:24N 26°04' W 080°07'0 0.0
2018-Jul-26 14:57N 26°04' W 080°07'0 0.0
2018-Jul-26 14:30N 26°04' W 080°07'0 0.0
2018-Jul-26 13:54N 26°04' W 080°07'0 0.0
2018-Jul-26 13:27N 26°04' W 080°07'0 0.0
2018-Jul-26 13:00N 26°04' W 080°07'0 0.0
2018-Jul-26 12:27N 26°04' W 080°07'0 0.0
2018-Jul-26 11:57N 26°04' W 080°07'0 0.0
2018-Jul-26 11:30N 26°04' W 080°07'0 0.0
2018-Jul-26 11:00N 26°04' W 080°07'0 0.1
2018-Jul-26 10:30N 26°04' W 080°07'0 0.0
2018-Jul-26 10:00N 26°04' W 080°07'0 0.0
2018-Jul-26 09:30N 26°04' W 080°07'0 0.0
2018-Jul-26 09:00N 26°04' W 080°07'0 0.0
2018-Jul-26 08:30N 26°04' W 080°07'0 0.0
2018-Jul-26 08:00N 26°04' W 080°07'0 0.0
2018-Jul-26 07:30N 26°04' W 080°07'0 0.0
2018-Jul-26 07:00N 26°04' W 080°07'0 0.0
2018-Jul-26 06:30N 26°04' W 080°07'0 0.1
2018-Jul-26 06:00N 26°04' W 080°07'0 0.9
2018-Jul-26 05:30N 26°04' W 080°07'0 0.0
2018-Jul-26 05:00N 26°04' W 080°07'2 3.7
2018-Jul-26 04:30N 26°06' W 080°06'4 8.8
2018-Jul-26 04:00N 26°07' W 080°01'3 6.5
2018-Jul-26 03:30N 26°09' W 079°59'2 4.3
2018-Jul-26 03:00N 26°10' W 079°57'4 8.4
2018-Jul-26 02:30N 26°06' W 079°56'4 7.9
2018-Jul-26 02:00N 26°02' W 079°55'3 6.6
2018-Jul-26 01:30N 25°60' W 079°52'4 7.1
2018-Jul-26 01:00N 25°58' W 079°49'4 8.9
2018-Jul-26 00:30N 25°55' W 079°45'510.2
2018-Jul-26 00:00N 25°51' W 079°42'613.0
2018-Jul-25 23:30N 25°45' W 079°41'713.2
2018-Jul-25 23:00N 25°38' W 079°41'916.5
2018-Jul-25 22:26N 25°29' W 079°40'  

Dump ship's entire track history